createdAt,value
2023-01-11T00:00:26.270Z,94.55
2023-01-11T00:02:59.836Z,94.57
2023-01-11T00:05:26.180Z,94.46
2023-01-11T00:07:52.549Z,94.43
2023-01-11T00:10:19.547Z,94.54
2023-01-11T00:12:46.043Z,94.79
2023-01-11T00:15:12.928Z,94.65
2023-01-11T00:17:39.947Z,95.07
2023-01-11T00:20:06.671Z,94.94
2023-01-11T00:22:33.329Z,95.57
2023-01-11T00:24:59.969Z,95.27
2023-01-11T00:27:26.355Z,95.23
2023-01-11T00:29:52.700Z,94.80
2023-01-11T00:32:19.051Z,94.97
2023-01-11T00:34:45.481Z,94.80
2023-01-11T00:37:11.819Z,95.13
2023-01-11T00:39:38.123Z,94.95
2023-01-11T00:42:23.378Z,95.30
2023-01-11T00:45:08.488Z,95.38
2023-01-11T00:47:53.357Z,95.67
2023-01-11T00:50:19.922Z,95.47
2023-01-11T00:52:46.407Z,95.58
2023-01-11T00:55:12.929Z,95.32
2023-01-11T00:57:39.268Z,95.93
2023-01-11T01:00:06.502Z,96.07
2023-01-11T01:02:33.880Z,95.97
2023-01-11T01:05:00.350Z,95.94
2023-01-11T01:07:26.827Z,96.42
2023-01-11T01:09:53.230Z,95.96
2023-01-11T01:12:40.326Z,96.24
2023-01-11T01:15:06.989Z,97.11
2023-01-11T01:17:33.625Z,96.25
2023-01-11T01:19:59.964Z,96.12
2023-01-11T01:22:26.386Z,96.80
2023-01-11T01:24:52.727Z,96.16
2023-01-11T01:27:19.989Z,96.17
2023-01-11T01:29:46.649Z,96.28
2023-01-11T01:32:13.061Z,96.17
2023-01-11T01:34:39.475Z,96.25
2023-01-11T01:37:08.358Z,96.09
2023-01-11T01:39:34.784Z,95.81
2023-01-11T01:42:01.307Z,96.03
2023-01-11T01:44:46.104Z,96.22
2023-01-11T01:47:16.128Z,96.73
2023-01-11T01:49:43.601Z,96.30
2023-01-11T01:52:13.309Z,96.32
2023-01-11T01:54:42.898Z,95.90
2023-01-11T01:57:11.178Z,96.32
2023-01-11T01:59:37.662Z,95.91
2023-01-11T02:02:04.068Z,96.44
2023-01-11T02:04:38.627Z,96.28
2023-01-11T02:07:15.993Z,96.32
2023-01-11T02:09:46.488Z,96.07
2023-01-11T02:12:15.092Z,96.33
2023-01-11T02:14:43.090Z,96.87
2023-01-11T02:17:10.019Z,96.41
2023-01-11T02:19:39.305Z,96.22
2023-01-11T02:22:16.849Z,96.04
2023-01-11T02:24:46.307Z,96.25
2023-01-11T02:27:18.893Z,95.96
2023-01-11T02:29:51.264Z,96.08
2023-01-11T02:32:32.236Z,96.19
2023-01-11T02:35:07.439Z,95.85
2023-01-11T02:37:52.522Z,96.41
2023-01-11T02:40:27.494Z,96.23
2023-01-11T02:43:29.638Z,96.36
2023-01-11T02:46:01.857Z,96.30
2023-01-11T02:48:46.963Z,96.01
2023-01-11T02:51:17.738Z,96.53
2023-01-11T02:53:47.557Z,96.26
2023-01-11T02:56:16.522Z,96.49
2023-01-11T02:58:44.650Z,96.35
2023-01-11T03:01:11.897Z,96.39
2023-01-11T03:03:38.282Z,96.13
2023-01-11T03:06:12.598Z,96.16
2023-01-11T03:08:44.514Z,96.28
2023-01-11T03:11:14.354Z,96.70
2023-01-11T03:13:40.636Z,96.37
2023-01-11T03:16:14.200Z,96.40
2023-01-11T03:18:48.659Z,96.30
2023-01-11T03:21:24.061Z,96.43
2023-01-11T03:24:12.143Z,96.42
2023-01-11T03:26:48.068Z,96.31
2023-01-11T03:29:26.737Z,96.93
2023-01-11T03:31:59.872Z,97.19
2023-01-11T03:34:32.182Z,96.29
2023-01-11T03:37:01.903Z,96.55
2023-01-11T03:39:36.402Z,96.74
2023-01-11T03:42:05.199Z,96.58
2023-01-11T03:44:35.078Z,97.08
2023-01-11T03:47:05.031Z,97.12
2023-01-11T03:49:36.165Z,97.20
2023-01-11T03:52:03.894Z,97.02
2023-01-11T03:54:31.624Z,97.03
2023-01-11T03:57:16.348Z,96.73
2023-01-11T03:59:42.771Z,96.92
2023-01-11T04:02:25.748Z,96.67
2023-01-11T04:04:52.185Z,96.42
2023-01-11T04:07:18.928Z,96.66
2023-01-11T04:09:45.466Z,96.54
2023-01-11T04:12:11.955Z,96.39
2023-01-11T04:14:38.273Z,95.97
2023-01-11T04:17:05.329Z,95.93
2023-01-11T04:19:31.869Z,96.06
2023-01-11T04:21:58.194Z,95.92
2023-01-11T04:24:24.579Z,95.42
2023-01-11T04:26:50.935Z,95.21
2023-01-11T04:29:17.478Z,95.49
2023-01-11T04:31:43.879Z,95.40
2023-01-11T04:34:11.203Z,94.58
2023-01-11T04:36:37.605Z,94.62
2023-01-11T04:39:06.370Z,94.55
2023-01-11T04:41:51.402Z,94.46
2023-01-11T04:44:17.762Z,94.39
2023-01-11T04:46:44.104Z,94.46
2023-01-11T04:49:10.435Z,94.33
2023-01-11T04:51:36.773Z,94.48
2023-01-11T04:54:03.138Z,94.22
2023-01-11T04:56:29.590Z,94.52
2023-01-11T04:58:55.927Z,94.51
2023-01-11T05:01:22.324Z,94.51
2023-01-11T05:03:48.709Z,94.52
2023-01-11T05:06:15.183Z,94.40
2023-01-11T05:08:45.410Z,94.56
2023-01-11T05:11:11.728Z,94.53
2023-01-11T05:13:44.987Z,94.51
2023-01-11T05:16:12.727Z,94.43
2023-01-11T05:18:40.329Z,94.26
2023-01-11T05:21:06.824Z,94.30
2023-01-11T05:23:33.989Z,94.15
2023-01-11T05:26:00.506Z,94.16
2023-01-11T05:28:26.947Z,94.13
2023-01-11T05:30:53.482Z,94.18
2023-01-11T05:33:19.885Z,94.17
2023-01-11T05:35:46.226Z,94.23
2023-01-11T05:38:12.719Z,93.90
2023-01-11T05:40:39.025Z,93.69
2023-01-11T05:43:05.623Z,93.86
2023-01-11T05:45:32.936Z,93.69
2023-01-11T05:47:59.450Z,93.84
2023-01-11T05:50:26.199Z,93.49
2023-01-11T05:52:54.943Z,93.73
2023-01-11T05:55:21.431Z,93.54
2023-01-11T05:57:47.931Z,93.80
2023-01-11T06:00:14.674Z,93.99
2023-01-11T06:02:44.124Z,93.61
2023-01-11T06:05:10.542Z,93.71
2023-01-11T06:07:37.395Z,93.85
2023-01-11T06:10:03.993Z,93.85
2023-01-11T06:12:30.372Z,93.84
2023-01-11T06:14:56.812Z,93.73
2023-01-11T06:17:24.262Z,93.38
2023-01-11T06:19:53.620Z,93.55
2023-01-11T06:22:19.978Z,93.48
2023-01-11T06:24:46.423Z,93.33
2023-01-11T06:27:12.758Z,92.98
2023-01-11T06:29:39.125Z,92.92
2023-01-11T06:32:05.775Z,92.76
2023-01-11T06:34:34.555Z,92.65
2023-01-11T06:37:00.869Z,92.89
2023-01-11T06:39:27.352Z,92.97
2023-01-11T06:41:53.714Z,92.77
2023-01-11T06:44:20.084Z,92.70
2023-01-11T06:46:46.422Z,92.88
2023-01-11T06:49:12.818Z,92.90
2023-01-11T06:51:39.261Z,92.93
2023-01-11T06:54:05.618Z,92.95
2023-01-11T06:56:31.914Z,92.73
2023-01-11T06:58:58.338Z,93.04
2023-01-11T07:01:26.238Z,93.08
2023-01-11T07:03:53.244Z,92.94
2023-01-11T07:06:22.248Z,92.74
2023-01-11T07:08:49.886Z,92.52
2023-01-11T07:11:16.461Z,92.25
2023-01-11T07:13:42.815Z,91.91
2023-01-11T07:16:09.298Z,92.07
2023-01-11T07:18:35.745Z,91.75
2023-01-11T07:21:02.740Z,91.57
2023-01-11T07:23:29.119Z,91.46
2023-01-11T07:25:58.057Z,91.01
2023-01-11T07:28:24.469Z,91.11
2023-01-11T07:30:58.541Z,90.80
2023-01-11T07:33:26.042Z,90.75
2023-01-11T07:35:52.819Z,90.42
2023-01-11T07:38:19.465Z,90.13
2023-01-11T07:40:45.899Z,90.38
2023-01-11T07:43:15.935Z,89.94
2023-01-11T07:45:46.423Z,89.60
2023-01-11T07:48:14.260Z,89.46
2023-01-11T07:50:44.454Z,89.27
2023-01-11T07:53:11.154Z,89.27
2023-01-11T07:55:39.746Z,88.99
2023-01-11T07:58:06.695Z,88.71
2023-01-11T08:00:33.034Z,88.67
2023-01-11T08:03:00.765Z,88.46
2023-01-11T08:05:27.173Z,88.65
2023-01-11T08:07:53.642Z,88.57
2023-01-11T08:10:20.026Z,87.84
2023-01-11T08:13:05.771Z,87.69
2023-01-11T08:15:32.855Z,87.47
2023-01-11T08:18:00.059Z,87.10
2023-01-11T08:20:29.391Z,87.18
2023-01-11T08:22:56.324Z,86.80
2023-01-11T08:25:25.178Z,86.63
2023-01-11T08:27:51.646Z,86.51
2023-01-11T08:30:18.109Z,86.70
2023-01-11T08:32:44.520Z,86.92
2023-01-11T08:35:10.946Z,86.31
2023-01-11T08:37:37.400Z,86.35
2023-01-11T08:40:04.087Z,86.29
2023-01-11T08:42:30.436Z,86.23
2023-01-11T08:44:59.211Z,86.19
2023-01-11T08:47:25.642Z,86.00
2023-01-11T08:49:52.147Z,86.16
2023-01-11T08:52:18.601Z,85.97
2023-01-11T08:54:45.016Z,85.73
2023-01-11T08:57:11.426Z,85.49
2023-01-11T08:59:37.845Z,85.39
2023-01-11T09:02:04.781Z,85.11
2023-01-11T09:04:31.317Z,85.17
2023-01-11T09:06:57.767Z,84.60
2023-01-11T09:09:24.268Z,84.54
2023-01-11T09:11:57.358Z,83.82
2023-01-11T09:14:24.826Z,84.02
2023-01-11T09:16:51.883Z,83.75
2023-01-11T09:19:18.278Z,83.62
2023-01-11T09:21:46.189Z,83.95
2023-01-11T09:24:12.745Z,83.85
2023-01-11T09:26:41.387Z,83.79
2023-01-11T09:29:11.236Z,84.17
2023-01-11T09:31:37.815Z,83.85
2023-01-11T09:34:04.933Z,84.26
2023-01-11T09:36:32.983Z,84.50
2023-01-11T09:39:01.761Z,84.49
2023-01-11T09:41:40.428Z,84.20
2023-01-11T09:44:14.168Z,84.17
2023-01-11T09:46:42.891Z,84.80
2023-01-11T09:49:16.953Z,84.63
2023-01-11T09:51:43.369Z,84.08
2023-01-11T09:54:15.702Z,84.20
2023-01-11T09:56:47.910Z,83.81
2023-01-11T09:59:24.731Z,83.57
2023-01-11T10:01:57.847Z,83.40
2023-01-11T10:04:37.417Z,82.91
2023-01-11T10:07:23.055Z,82.26
2023-01-11T10:18:29.967Z,80.07
2023-01-11T10:19:25.748Z,79.64
2023-01-11T10:21:54.661Z,79.10
2023-01-11T10:24:24.903Z,78.10
2023-01-11T10:26:54.145Z,77.76
2023-01-11T10:29:44.855Z,77.23
2023-01-11T10:32:40.053Z,76.59
2023-01-11T10:35:25.913Z,76.02
2023-01-11T10:38:10.194Z,76.19
2023-01-11T10:41:08.457Z,75.90
2023-01-11T10:43:38.820Z,74.98
2023-01-11T10:46:08.377Z,74.95
2023-01-11T10:48:37.955Z,73.62
2023-01-11T10:51:09.633Z,73.17
2023-01-11T10:53:43.575Z,72.98
2023-01-11T10:56:42.938Z,72.24
2023-01-11T10:59:30.461Z,72.05
2023-01-11T11:02:05.226Z,72.80
2023-01-11T11:04:34.645Z,72.75
2023-01-11T11:07:16.344Z,72.75
2023-01-11T11:09:46.225Z,73.06
2023-01-11T11:12:45.218Z,73.07
2023-01-11T11:15:18.766Z,72.34
2023-01-11T11:17:48.741Z,71.85
2023-01-11T11:20:17.236Z,71.88
2023-01-11T11:22:47.248Z,71.76
2023-01-11T11:25:22.976Z,71.11
2023-01-11T11:27:55.588Z,70.47
2023-01-11T11:30:26.811Z,70.77
2023-01-11T11:32:59.565Z,69.89
2023-01-11T11:35:32.682Z,69.19
2023-01-11T11:37:59.194Z,68.47
2023-01-11T11:40:35.264Z,68.48
2023-01-11T11:43:09.853Z,68.58
2023-01-11T11:45:36.449Z,68.26
2023-01-11T11:48:12.873Z,68.74
2023-01-11T11:50:45.276Z,68.96
2023-01-11T11:53:19.305Z,69.15
2023-01-11T11:55:45.689Z,69.12
2023-01-11T11:58:17.199Z,69.03
2023-01-11T12:00:45.963Z,69.09
2023-01-11T12:03:15.762Z,70.47
2023-01-11T12:05:57.026Z,70.11
2023-01-11T12:08:26.850Z,70.16
2023-01-11T12:10:58.575Z,69.72
2023-01-11T12:13:29.779Z,69.79
2023-01-11T12:16:00.471Z,69.26
2023-01-11T12:18:26.996Z,69.22
2023-01-11T12:20:53.861Z,69.14
2023-01-11T12:23:21.543Z,69.07
2023-01-11T12:25:47.870Z,69.46
2023-01-11T12:28:31.087Z,69.64
2023-01-11T12:31:07.131Z,68.99
2023-01-11T12:33:44.316Z,69.30
2023-01-11T12:36:20.003Z,69.23
2023-01-11T12:39:05.269Z,68.62
2023-01-11T12:41:43.978Z,67.85
2023-01-11T12:44:15.442Z,67.34
2023-01-11T12:46:48.448Z,66.97
2023-01-11T12:49:20.269Z,66.68
2023-01-11T12:51:54.835Z,65.95
2023-01-11T12:54:27.495Z,65.77
2023-01-11T12:57:05.728Z,65.40
2023-01-11T12:59:39.702Z,65.25
2023-01-11T13:02:22.337Z,65.47
2023-01-11T13:05:01.263Z,65.20
2023-01-11T13:07:33.161Z,64.84
2023-01-11T13:10:10.062Z,64.45
2023-01-11T13:12:42.600Z,64.96
2023-01-11T13:15:20.966Z,65.20
2023-01-11T13:17:52.540Z,64.53
2023-01-11T13:20:59.389Z,63.76
2023-01-11T13:23:35.783Z,63.95
2023-01-11T13:26:09.936Z,63.09
2023-01-11T13:28:39.155Z,63.36
2023-01-11T13:31:07.857Z,63.08
2023-01-11T13:33:35.850Z,63.48
2023-01-11T13:36:09.696Z,63.39
2023-01-11T13:38:46.542Z,63.55
2023-01-11T13:41:23.597Z,63.43
2023-01-11T13:43:55.224Z,63.11
2023-01-11T13:46:39.964Z,63.74
2023-01-11T13:49:12.447Z,63.78
2023-01-11T13:51:42.652Z,64.32
2023-01-11T13:54:14.064Z,64.24
2023-01-11T13:56:47.902Z,64.25
2023-01-11T13:59:20.354Z,64.16
2023-01-11T14:01:57.910Z,64.17
2023-01-11T14:04:30.609Z,64.27
2023-01-11T14:07:09.053Z,63.74
2023-01-11T14:09:41.495Z,62.75
2023-01-11T14:12:14.023Z,61.91
2023-01-11T14:14:59.044Z,62.83
2023-01-11T14:17:25.355Z,62.60
2023-01-11T14:20:06.711Z,62.30
2023-01-11T14:22:47.167Z,62.95
2023-01-11T14:25:13.477Z,62.49
2023-01-11T14:27:58.870Z,62.86
2023-01-11T14:30:42.013Z,62.81
2023-01-11T14:33:24.347Z,63.08
2023-01-11T14:36:05.773Z,63.28
2023-01-11T14:38:51.073Z,63.61
2023-01-11T14:41:36.279Z,63.95
2023-01-11T14:44:21.446Z,63.95
2023-01-11T14:46:47.819Z,64.03
2023-01-11T14:49:23.160Z,63.91
2023-01-11T14:52:01.114Z,63.77
2023-01-11T14:54:30.081Z,63.87
2023-01-11T14:56:57.393Z,64.47
2023-01-11T14:59:36.035Z,64.43
2023-01-11T15:02:07.233Z,64.34
2023-01-11T15:04:52.126Z,64.48
2023-01-11T15:07:33.259Z,64.31
2023-01-11T15:10:00.312Z,64.76
2023-01-11T15:12:37.378Z,64.63
2023-01-11T15:15:03.902Z,65.22
2023-01-11T15:17:49.508Z,65.20
2023-01-11T15:20:19.976Z,65.18
2023-01-11T15:22:46.598Z,65.19
2023-01-11T15:25:26.793Z,65.22
2023-01-11T15:27:53.671Z,65.67
2023-01-11T15:30:31.513Z,65.63
2023-01-11T15:33:16.937Z,65.88
2023-01-11T15:35:55.455Z,65.55
2023-01-11T15:38:21.869Z,66.14
2023-01-11T15:40:49.992Z,66.25
2023-01-11T15:43:31.462Z,66.48
2023-01-11T15:46:25.733Z,66.32
2023-01-11T15:48:55.122Z,67.00
2023-01-11T15:51:30.654Z,66.78
2023-01-11T15:54:09.267Z,67.21
2023-01-11T15:56:46.617Z,66.94
2023-01-11T15:59:21.932Z,67.29
2023-01-11T16:01:48.299Z,67.24
2023-01-11T16:04:28.678Z,67.46
2023-01-11T16:06:58.028Z,67.42
2023-01-11T16:09:43.954Z,67.64
2023-01-11T16:12:19.495Z,67.83
2023-01-11T16:14:45.916Z,68.26
2023-01-11T16:17:13.362Z,68.61
2023-01-11T16:19:42.739Z,68.96
2023-01-11T16:22:19.537Z,69.34
2023-01-11T16:24:47.809Z,70.04
2023-01-11T16:27:22.394Z,70.07
2023-01-11T16:29:49.742Z,70.29
2023-01-11T16:32:20.656Z,70.56
2023-01-11T16:34:50.204Z,70.68
2023-01-11T16:37:25.791Z,70.73
2023-01-11T16:39:56.550Z,71.30
2023-01-11T16:42:23.973Z,71.26
2023-01-11T16:44:55.753Z,71.19
2023-01-11T16:47:22.470Z,71.67
2023-01-11T16:49:52.026Z,71.29
2023-01-11T16:52:38.976Z,71.73
2023-01-11T16:55:24.023Z,71.31
2023-01-11T16:57:53.431Z,71.25
2023-01-11T17:00:24.485Z,70.88
2023-01-11T17:03:00.322Z,70.57
2023-01-11T17:05:26.989Z,70.26
2023-01-11T17:07:53.354Z,70.25
2023-01-11T17:10:24.107Z,70.66
2023-01-11T17:13:37.403Z,70.48
2023-01-11T17:16:08.375Z,70.02
2023-01-11T17:18:37.664Z,70.06
2023-01-11T17:21:04.201Z,69.81
2023-01-11T17:23:30.753Z,70.10
2023-01-11T17:25:57.608Z,69.95
2023-01-11T17:28:24.557Z,70.31
2023-01-11T17:30:52.039Z,70.00
2023-01-11T17:33:26.476Z,70.25
2023-01-11T17:35:53.810Z,70.38
2023-01-11T17:38:22.280Z,70.09
2023-01-11T17:40:48.796Z,70.29
2023-01-11T17:43:41.493Z,70.10
2023-01-11T17:46:09.457Z,70.28
2023-01-11T17:48:35.841Z,70.03
2023-01-11T17:51:03.058Z,70.21
2023-01-11T17:53:37.359Z,70.18
2023-01-11T17:56:07.710Z,69.49
2023-01-11T17:58:37.826Z,69.64
2023-01-11T18:01:04.344Z,69.61
2023-01-11T18:03:38.350Z,69.63
2023-01-11T18:06:18.607Z,69.66
2023-01-11T18:08:54.811Z,69.79
2023-01-11T18:11:26.588Z,69.51
2023-01-11T18:13:54.408Z,69.65
2023-01-11T18:16:21.687Z,69.56
2023-01-11T18:18:49.410Z,69.67
2023-01-11T18:21:34.351Z,70.32
2023-01-11T18:24:10.086Z,70.14
2023-01-11T18:26:56.722Z,70.34
2023-01-11T18:29:38.235Z,70.45
2023-01-11T18:32:05.799Z,71.38
2023-01-11T18:34:32.278Z,71.95
2023-01-11T18:36:59.251Z,72.50
2023-01-11T18:39:25.777Z,72.93
2023-01-11T18:42:07.237Z,72.87
2023-01-11T18:44:41.066Z,73.13
2023-01-11T18:47:33.551Z,72.86
2023-01-11T18:49:59.847Z,72.79
2023-01-11T18:52:27.443Z,72.45
2023-01-11T18:54:54.682Z,72.79
2023-01-11T18:57:22.671Z,73.08
2023-01-11T18:59:49.672Z,73.23
2023-01-11T19:02:43.172Z,74.10
2023-01-11T19:05:13.896Z,75.05
2023-01-11T19:07:40.360Z,75.14
2023-01-11T19:10:06.995Z,74.95
2023-01-11T19:12:33.416Z,75.53
2023-01-11T19:14:59.708Z,75.49
2023-01-11T19:17:29.079Z,76.60
2023-01-11T19:19:55.437Z,77.16
2023-01-11T19:22:24.537Z,77.78
2023-01-11T19:24:53.027Z,78.06
2023-01-11T19:27:19.484Z,77.88
2023-01-11T19:29:45.908Z,77.96
2023-01-11T19:32:12.312Z,78.38
2023-01-11T19:34:39.820Z,78.26
2023-01-11T19:37:06.149Z,78.97
2023-01-11T19:39:32.550Z,79.96
2023-01-11T19:42:01.320Z,80.58
2023-01-11T19:44:32.068Z,80.87
2023-01-11T19:47:10.533Z,81.55
2023-01-11T19:49:38.567Z,81.66
2023-01-11T19:52:13.916Z,82.30
2023-01-11T19:54:44.009Z,82.99
2023-01-11T19:57:15.167Z,82.69
2023-01-11T19:59:42.032Z,82.22
2023-01-11T20:02:09.793Z,82.17
2023-01-11T20:04:37.202Z,82.41
2023-01-11T20:07:03.683Z,81.92
2023-01-11T20:09:30.040Z,82.26
2023-01-11T20:11:58.798Z,83.06
2023-01-11T20:14:25.499Z,83.40
2023-01-11T20:16:51.855Z,84.38
2023-01-11T20:19:18.360Z,84.00
2023-01-11T20:21:44.756Z,84.28
2023-01-11T20:24:14.751Z,84.85
2023-01-11T20:26:41.568Z,85.24
2023-01-11T20:29:08.044Z,84.72
2023-01-11T20:31:35.524Z,85.02
2023-01-11T20:34:05.795Z,85.18
2023-01-11T20:36:34.852Z,84.92
2023-01-11T20:39:03.629Z,84.78
2023-01-11T20:41:48.920Z,84.66
2023-01-11T20:44:16.819Z,84.32
2023-01-11T20:46:45.145Z,83.93
2023-01-11T20:49:13.049Z,83.61
2023-01-11T20:51:39.788Z,83.47
2023-01-11T20:54:06.825Z,83.44
2023-01-11T20:56:33.625Z,83.31
2023-01-11T20:59:03.295Z,83.05
2023-01-11T21:01:30.400Z,83.09
2023-01-11T21:04:04.565Z,82.93
2023-01-11T21:06:31.917Z,82.94
2023-01-11T21:09:01.763Z,83.14
2023-01-11T21:11:28.781Z,83.17
2023-01-11T21:13:55.558Z,83.19
2023-01-11T21:16:24.273Z,83.13
2023-01-11T21:19:01.229Z,83.19
2023-01-11T21:21:28.559Z,83.38
2023-01-11T21:23:56.069Z,82.94
2023-01-11T21:26:25.387Z,83.46
2023-01-11T21:28:58.479Z,83.40
2023-01-11T21:31:25.503Z,83.08
2023-01-11T21:33:51.872Z,83.28
2023-01-11T21:36:20.128Z,83.32
2023-01-11T21:38:46.949Z,82.87
2023-01-11T21:41:40.464Z,82.92
2023-01-11T21:44:07.514Z,82.37
2023-01-11T21:46:34.194Z,82.55
2023-01-11T21:49:00.717Z,82.27
2023-01-11T21:51:29.715Z,82.44
2023-01-11T21:53:56.579Z,82.65
2023-01-11T21:56:23.460Z,82.53
2023-01-11T21:58:50.534Z,82.82
2023-01-11T22:01:19.375Z,82.80
2023-01-11T22:03:45.787Z,82.89
2023-01-11T22:06:12.360Z,82.96
2023-01-11T22:08:39.747Z,83.01
2023-01-11T22:11:06.745Z,83.00
2023-01-11T22:13:34.307Z,82.93
2023-01-11T22:16:01.667Z,82.85
2023-01-11T22:18:28.910Z,82.60
2023-01-11T22:20:55.477Z,82.63
2023-01-11T22:23:22.487Z,82.53
2023-01-11T22:25:48.961Z,82.42
2023-01-11T22:28:18.491Z,82.72
2023-01-11T22:30:44.826Z,82.45
2023-01-11T22:33:11.297Z,82.71
2023-01-11T22:35:37.708Z,82.65
2023-01-11T22:38:06.420Z,82.85
2023-01-11T22:40:32.726Z,82.33
2023-01-11T22:42:59.100Z,82.72
2023-01-11T22:45:25.558Z,82.89
2023-01-11T22:47:51.917Z,83.12
2023-01-11T22:50:18.328Z,83.52
2023-01-11T22:52:44.699Z,83.68
2023-01-11T22:55:11.048Z,84.05
2023-01-11T22:57:37.911Z,84.34
2023-01-11T23:00:05.128Z,84.65
2023-01-11T23:02:31.620Z,85.16
2023-01-11T23:04:58.000Z,85.25
2023-01-11T23:07:24.373Z,85.74
2023-01-11T23:09:50.685Z,86.26
2023-01-11T23:12:36.146Z,86.26
2023-01-11T23:15:02.557Z,86.57
2023-01-11T23:17:28.936Z,86.86
2023-01-11T23:19:55.312Z,87.24
2023-01-11T23:22:21.711Z,87.35
2023-01-11T23:24:48.062Z,87.42
2023-01-11T23:27:14.544Z,87.48
2023-01-11T23:29:40.909Z,87.54
2023-01-11T23:32:07.349Z,87.53
2023-01-11T23:34:33.749Z,87.48
2023-01-11T23:37:00.089Z,87.16
2023-01-11T23:39:26.597Z,87.24
2023-01-11T23:42:11.434Z,87.16
2023-01-11T23:44:37.839Z,87.01
2023-01-11T23:47:30.207Z,87.07
2023-01-11T23:50:00.190Z,86.95
2023-01-11T23:52:28.039Z,86.81
2023-01-11T23:54:54.856Z,86.53
2023-01-11T23:57:21.965Z,86.55
2023-01-11T23:59:48.406Z,86.91
